sensor_id;sensor_type;location;lat;lon;timestamp;temperature;humidity
33815;DHT22;20121;51.910;8.406;2022-12-07T00:01:21;4.10;99.90
33815;DHT22;20121;51.910;8.406;2022-12-07T00:03:49;4.30;99.90
33815;DHT22;20121;51.910;8.406;2022-12-07T00:06:17;4.40;99.90
33815;DHT22;20121;51.910;8.406;2022-12-07T00:08:43;4.40;99.90
33815;DHT22;20121;51.910;8.406;2022-12-07T00:11:11;4.20;99.90
33815;DHT22;20121;51.910;8.406;2022-12-07T00:13:38;4.40;99.90
33815;DHT22;20121;51.910;8.406;2022-12-07T00:16:07;4.40;99.90
33815;DHT22;20121;51.910;8.406;2022-12-07T00:18:34;4.40;99.90
33815;DHT22;20121;51.910;8.406;2022-12-07T00:23:26;4.40;99.90
33815;DHT22;20121;51.910;8.406;2022-12-07T00:25:52;4.40;99.90
33815;DHT22;20121;51.910;8.406;2022-12-07T00:28:17;4.40;99.90
33815;DHT22;20121;51.910;8.406;2022-12-07T00:30:43;4.50;99.90
33815;DHT22;20121;51.910;8.406;2022-12-07T00:33:09;4.50;99.90
33815;DHT22;20121;51.910;8.406;2022-12-07T00:35:34;4.40;99.90
33815;DHT22;20121;51.910;8.406;2022-12-07T00:40:26;4.50;99.90
33815;DHT22;20121;51.910;8.406;2022-12-07T00:42:51;4.40;99.90
33815;DHT22;20121;51.910;8.406;2022-12-07T00:45:17;4.50;99.90
33815;DHT22;20121;51.910;8.406;2022-12-07T00:47:43;4.50;99.90
33815;DHT22;20121;51.910;8.406;2022-12-07T00:50:08;4.50;99.90
33815;DHT22;20121;51.910;8.406;2022-12-07T00:52:34;4.50;99.90
33815;DHT22;20121;51.910;8.406;2022-12-07T00:55:00;4.50;99.90
33815;DHT22;20121;51.910;8.406;2022-12-07T00:57:25;4.50;99.90
33815;DHT22;20121;51.910;8.406;2022-12-07T00:59:51;4.50;99.90
33815;DHT22;20121;51.910;8.406;2022-12-07T01:02:21;4.50;99.90
33815;DHT22;20121;51.910;8.406;2022-12-07T01:04:46;4.50;99.90
33815;DHT22;20121;51.910;8.406;2022-12-07T01:07:12;4.50;99.90
33815;DHT22;20121;51.910;8.406;2022-12-07T01:09:37;4.50;99.90
33815;DHT22;20121;51.910;8.406;2022-12-07T01:12:03;4.50;99.90
33815;DHT22;20121;51.910;8.406;2022-12-07T01:14:29;4.50;99.90
33815;DHT22;20121;51.910;8.406;2022-12-07T01:16:54;4.50;99.90
33815;DHT22;20121;51.910;8.406;2022-12-07T01:19:20;4.50;99.90
33815;DHT22;20121;51.910;8.406;2022-12-07T01:21:46;4.50;99.90
33815;DHT22;20121;51.910;8.406;2022-12-07T01:24:11;4.40;99.90
33815;DHT22;20121;51.910;8.406;2022-12-07T01:26:37;4.50;99.90
33815;DHT22;20121;51.910;8.406;2022-12-07T01:29:03;4.60;99.90
33815;DHT22;20121;51.910;8.406;2022-12-07T01:31:29;4.50;99.90
33815;DHT22;20121;51.910;8.406;2022-12-07T01:33:57;4.50;99.90
33815;DHT22;20121;51.910;8.406;2022-12-07T01:36:33;4.50;99.90
33815;DHT22;20121;51.910;8.406;2022-12-07T01:39:02;4.50;99.90
33815;DHT22;20121;51.910;8.406;2022-12-07T01:41:34;4.50;99.90
33815;DHT22;20121;51.910;8.406;2022-12-07T01:44:24;4.50;99.90
33815;DHT22;20121;51.910;8.406;2022-12-07T01:46:54;4.70;99.90
33815;DHT22;20121;51.910;8.406;2022-12-07T01:49:23;4.50;99.90
33815;DHT22;20121;51.910;8.406;2022-12-07T01:51:52;4.50;99.90
33815;DHT22;20121;51.910;8.406;2022-12-07T01:54:20;4.70;99.90
33815;DHT22;20121;51.910;8.406;2022-12-07T01:56:51;4.50;99.90
33815;DHT22;20121;51.910;8.406;2022-12-07T01:59:18;4.50;99.90
33815;DHT22;20121;51.910;8.406;2022-12-07T02:01:45;4.80;99.90
33815;DHT22;20121;51.910;8.406;2022-12-07T02:04:11;4.50;99.90
33815;DHT22;20121;51.910;8.406;2022-12-07T02:06:37;4.60;99.90
33815;DHT22;20121;51.910;8.406;2022-12-07T02:09:04;4.60;99.90
33815;DHT22;20121;51.910;8.406;2022-12-07T02:11:29;4.60;99.90
33815;DHT22;20121;51.910;8.406;2022-12-07T02:13:55;4.50;99.90
33815;DHT22;20121;51.910;8.406;2022-12-07T02:19:30;4.60;99.90
33815;DHT22;20121;51.910;8.406;2022-12-07T02:24:56;4.60;99.90
33815;DHT22;20121;51.910;8.406;2022-12-07T02:27:45;4.50;99.90
33815;DHT22;20121;51.910;8.406;2022-12-07T02:32:56;4.50;99.90
33815;DHT22;20121;51.910;8.406;2022-12-07T02:41:06;4.60;99.90
33815;DHT22;20121;51.910;8.406;2022-12-07T02:43:35;4.50;99.90
33815;DHT22;20121;51.910;8.406;2022-12-07T02:46:08;4.50;99.90
33815;DHT22;20121;51.910;8.406;2022-12-07T02:48:36;4.30;99.90
33815;DHT22;20121;51.910;8.406;2022-12-07T02:51:02;4.50;99.90
33815;DHT22;20121;51.910;8.406;2022-12-07T02:53:34;4.50;99.90
33815;DHT22;20121;51.910;8.406;2022-12-07T02:56:13;4.50;99.90
33815;DHT22;20121;51.910;8.406;2022-12-07T02:59:12;4.50;99.90
33815;DHT22;20121;51.910;8.406;2022-12-07T03:06:57;4.40;99.90
33815;DHT22;20121;51.910;8.406;2022-12-07T03:09:33;4.40;99.90
33815;DHT22;20121;51.910;8.406;2022-12-07T03:12:09;4.40;99.90
33815;DHT22;20121;51.910;8.406;2022-12-07T03:14:41;4.40;99.90
33815;DHT22;20121;51.910;8.406;2022-12-07T03:17:14;4.40;99.90
33815;DHT22;20121;51.910;8.406;2022-12-07T03:19:42;4.40;99.90
33815;DHT22;20121;51.910;8.406;2022-12-07T03:22:12;4.30;99.90
33815;DHT22;20121;51.910;8.406;2022-12-07T03:24:53;4.30;99.90
33815;DHT22;20121;51.910;8.406;2022-12-07T03:27:24;4.30;99.90
33815;DHT22;20121;51.910;8.406;2022-12-07T03:30:03;4.30;99.90
33815;DHT22;20121;51.910;8.406;2022-12-07T03:35:17;4.30;99.90
33815;DHT22;20121;51.910;8.406;2022-12-07T03:37:49;4.30;99.90
33815;DHT22;20121;51.910;8.406;2022-12-07T03:40:35;4.20;99.90
33815;DHT22;20121;51.910;8.406;2022-12-07T03:43:03;4.20;99.90
33815;DHT22;20121;51.910;8.406;2022-12-07T03:45:42;4.20;99.90
33815;DHT22;20121;51.910;8.406;2022-12-07T03:48:25;4.20;99.90
33815;DHT22;20121;51.910;8.406;2022-12-07T03:51:22;4.20;99.90
33815;DHT22;20121;51.910;8.406;2022-12-07T03:54:07;4.10;99.90
33815;DHT22;20121;51.910;8.406;2022-12-07T03:56:35;4.10;99.90
33815;DHT22;20121;51.910;8.406;2022-12-07T03:59:01;4.10;99.90
33815;DHT22;20121;51.910;8.406;2022-12-07T04:01:27;4.10;99.90
33815;DHT22;20121;51.910;8.406;2022-12-07T04:03:53;4.10;99.90
33815;DHT22;20121;51.910;8.406;2022-12-07T04:06:18;4.10;99.90
33815;DHT22;20121;51.910;8.406;2022-12-07T04:08:44;4.10;99.90
33815;DHT22;20121;51.910;8.406;2022-12-07T04:11:10;3.90;99.90
33815;DHT22;20121;51.910;8.406;2022-12-07T04:13:35;4.00;99.90
33815;DHT22;20121;51.910;8.406;2022-12-07T04:16:21;4.00;99.90
33815;DHT22;20121;51.910;8.406;2022-12-07T04:18:47;4.00;99.90
33815;DHT22;20121;51.910;8.406;2022-12-07T04:21:12;3.60;99.90
33815;DHT22;20121;51.910;8.406;2022-12-07T04:23:38;4.00;99.90
33815;DHT22;20121;51.910;8.406;2022-12-07T04:26:03;3.90;99.90
33815;DHT22;20121;51.910;8.406;2022-12-07T04:28:29;3.60;99.90
33815;DHT22;20121;51.910;8.406;2022-12-07T04:30:55;3.90;99.90
33815;DHT22;20121;51.910;8.406;2022-12-07T04:33:20;3.80;99.90
33815;DHT22;20121;51.910;8.406;2022-12-07T04:35:46;3.80;99.90
33815;DHT22;20121;51.910;8.406;2022-12-07T04:38:11;3.80;99.90
33815;DHT22;20121;51.910;8.406;2022-12-07T04:40:37;3.80;99.90
33815;DHT22;20121;51.910;8.406;2022-12-07T04:43:03;3.70;99.90
33815;DHT22;20121;51.910;8.406;2022-12-07T04:45:28;3.80;99.90
33815;DHT22;20121;51.910;8.406;2022-12-07T04:47:54;3.70;99.90
33815;DHT22;20121;51.910;8.406;2022-12-07T04:50:19;3.70;99.90
33815;DHT22;20121;51.910;8.406;2022-12-07T04:52:45;3.70;99.90
33815;DHT22;20121;51.910;8.406;2022-12-07T04:55:11;3.60;99.90
33815;DHT22;20121;51.910;8.406;2022-12-07T04:57:36;3.60;99.90
33815;DHT22;20121;51.910;8.406;2022-12-07T05:00:02;3.60;99.90
33815;DHT22;20121;51.910;8.406;2022-12-07T05:02:28;3.60;99.90
33815;DHT22;20121;51.910;8.406;2022-12-07T05:04:54;3.60;99.90
33815;DHT22;20121;51.910;8.406;2022-12-07T05:07:19;3.50;99.90
33815;DHT22;20121;51.910;8.406;2022-12-07T05:09:45;3.60;99.90
33815;DHT22;20121;51.910;8.406;2022-12-07T05:12:10;3.50;99.90
33815;DHT22;20121;51.910;8.406;2022-12-07T05:14:36;3.50;99.90
33815;DHT22;20121;51.910;8.406;2022-12-07T05:17:02;3.50;99.90
33815;DHT22;20121;51.910;8.406;2022-12-07T05:19:27;3.40;99.90
33815;DHT22;20121;51.910;8.406;2022-12-07T05:21:53;3.40;99.90
33815;DHT22;20121;51.910;8.406;2022-12-07T05:24:18;3.40;99.90
33815;DHT22;20121;51.910;8.406;2022-12-07T05:26:45;3.40;99.90
33815;DHT22;20121;51.910;8.406;2022-12-07T05:29:13;3.40;99.90
33815;DHT22;20121;51.910;8.406;2022-12-07T05:31:40;3.00;99.90
33815;DHT22;20121;51.910;8.406;2022-12-07T05:34:05;3.30;99.90
33815;DHT22;20121;51.910;8.406;2022-12-07T05:36:31;3.30;99.90
33815;DHT22;20121;51.910;8.406;2022-12-07T05:38:57;3.30;99.90
33815;DHT22;20121;51.910;8.406;2022-12-07T05:41:23;3.30;99.90
33815;DHT22;20121;51.910;8.406;2022-12-07T05:44:08;3.30;99.90
33815;DHT22;20121;51.910;8.406;2022-12-07T05:46:34;3.30;99.90
33815;DHT22;20121;51.910;8.406;2022-12-07T05:49:00;3.30;99.90
33815;DHT22;20121;51.910;8.406;2022-12-07T05:53:51;3.30;99.90
33815;DHT22;20121;51.910;8.406;2022-12-07T05:56:17;3.30;99.90
33815;DHT22;20121;51.910;8.406;2022-12-07T05:58:43;3.20;99.90
33815;DHT22;20121;51.910;8.406;2022-12-07T06:01:27;3.20;99.90
33815;DHT22;20121;51.910;8.406;2022-12-07T06:03:53;3.20;99.90
33815;DHT22;20121;51.910;8.406;2022-12-07T06:06:19;3.20;99.90
33815;DHT22;20121;51.910;8.406;2022-12-07T06:08:45;3.20;99.90
33815;DHT22;20121;51.910;8.406;2022-12-07T06:11:11;3.20;99.90
33815;DHT22;20121;51.910;8.406;2022-12-07T06:13:55;3.20;99.90
33815;DHT22;20121;51.910;8.406;2022-12-07T06:16:20;3.20;99.90
33815;DHT22;20121;51.910;8.406;2022-12-07T06:18:46;3.20;99.90
33815;DHT22;20121;51.910;8.406;2022-12-07T06:21:11;3.10;99.90
33815;DHT22;20121;51.910;8.406;2022-12-07T06:23:37;3.10;99.90
33815;DHT22;20121;51.910;8.406;2022-12-07T06:26:03;3.10;99.90
33815;DHT22;20121;51.910;8.406;2022-12-07T06:28:28;3.10;99.90
33815;DHT22;20121;51.910;8.406;2022-12-07T06:31:01;3.10;99.90
33815;DHT22;20121;51.910;8.406;2022-12-07T06:33:27;3.00;99.90
33815;DHT22;20121;51.910;8.406;2022-12-07T06:35:54;4.00;99.90
33815;DHT22;20121;51.910;8.406;2022-12-07T06:38:19;2.90;99.90
33815;DHT22;20121;51.910;8.406;2022-12-07T06:40:45;3.00;99.90
33815;DHT22;20121;51.910;8.406;2022-12-07T06:43:11;3.00;99.90
33815;DHT22;20121;51.910;8.406;2022-12-07T06:45:37;3.00;99.90
33815;DHT22;20121;51.910;8.406;2022-12-07T06:48:02;3.00;99.90
33815;DHT22;20121;51.910;8.406;2022-12-07T06:50:28;2.90;99.90
33815;DHT22;20121;51.910;8.406;2022-12-07T06:52:54;2.90;99.90
33815;DHT22;20121;51.910;8.406;2022-12-07T06:55:19;2.90;99.90
33815;DHT22;20121;51.910;8.406;2022-12-07T06:57:45;2.90;99.90
33815;DHT22;20121;51.910;8.406;2022-12-07T07:00:11;2.80;99.90
33815;DHT22;20121;51.910;8.406;2022-12-07T07:02:37;2.80;99.90
33815;DHT22;20121;51.910;8.406;2022-12-07T07:05:03;2.80;99.90
33815;DHT22;20121;51.910;8.406;2022-12-07T07:07:28;2.70;99.90
33815;DHT22;20121;51.910;8.406;2022-12-07T07:09:54;2.80;99.90
33815;DHT22;20121;51.910;8.406;2022-12-07T07:12:20;2.40;99.90
33815;DHT22;20121;51.910;8.406;2022-12-07T07:14:45;2.60;99.90
33815;DHT22;20121;51.910;8.406;2022-12-07T07:17:11;2.60;99.90
33815;DHT22;20121;51.910;8.406;2022-12-07T07:19:36;2.60;99.90
33815;DHT22;20121;51.910;8.406;2022-12-07T07:22:03;2.50;99.90
33815;DHT22;20121;51.910;8.406;2022-12-07T07:24:28;2.50;99.90
33815;DHT22;20121;51.910;8.406;2022-12-07T07:26:54;2.50;99.90
33815;DHT22;20121;51.910;8.406;2022-12-07T07:29:20;2.50;99.90
33815;DHT22;20121;51.910;8.406;2022-12-07T07:31:46;2.50;99.90
33815;DHT22;20121;51.910;8.406;2022-12-07T07:34:11;2.50;99.90
33815;DHT22;20121;51.910;8.406;2022-12-07T07:36:37;2.50;99.90
33815;DHT22;20121;51.910;8.406;2022-12-07T07:39:02;2.40;99.90
33815;DHT22;20121;51.910;8.406;2022-12-07T07:41:28;2.50;99.90
33815;DHT22;20121;51.910;8.406;2022-12-07T07:43:53;2.40;99.90
33815;DHT22;20121;51.910;8.406;2022-12-07T07:46:19;2.40;99.90
33815;DHT22;20121;51.910;8.406;2022-12-07T07:48:45;2.40;99.90
33815;DHT22;20121;51.910;8.406;2022-12-07T07:51:10;2.40;99.90
33815;DHT22;20121;51.910;8.406;2022-12-07T07:53:36;2.40;99.90
33815;DHT22;20121;51.910;8.406;2022-12-07T07:56:01;2.40;99.90
33815;DHT22;20121;51.910;8.406;2022-12-07T07:58:27;2.40;99.90
33815;DHT22;20121;51.910;8.406;2022-12-07T08:00:53;2.30;99.90
33815;DHT22;20121;51.910;8.406;2022-12-07T08:03:19;2.30;99.90
33815;DHT22;20121;51.910;8.406;2022-12-07T08:05:45;2.30;99.90
33815;DHT22;20121;51.910;8.406;2022-12-07T08:08:10;2.30;99.90
33815;DHT22;20121;51.910;8.406;2022-12-07T08:10:36;2.30;99.90
33815;DHT22;20121;51.910;8.406;2022-12-07T08:13:03;2.30;99.90
33815;DHT22;20121;51.910;8.406;2022-12-07T08:15:40;2.30;99.90
33815;DHT22;20121;51.910;8.406;2022-12-07T08:18:06;2.30;99.90
33815;DHT22;20121;51.910;8.406;2022-12-07T08:20:33;2.30;99.90
33815;DHT22;20121;51.910;8.406;2022-12-07T08:22:59;2.30;99.90
33815;DHT22;20121;51.910;8.406;2022-12-07T08:25:25;2.60;99.90
33815;DHT22;20121;51.910;8.406;2022-12-07T08:27:51;2.40;99.90
33815;DHT22;20121;51.910;8.406;2022-12-07T08:30:17;2.40;99.90
33815;DHT22;20121;51.910;8.406;2022-12-07T08:32:47;2.50;99.90
33815;DHT22;20121;51.910;8.406;2022-12-07T08:35:14;2.50;99.90
33815;DHT22;20121;51.910;8.406;2022-12-07T08:37:39;2.50;99.90
33815;DHT22;20121;51.910;8.406;2022-12-07T08:40:07;2.50;99.90
33815;DHT22;20121;51.910;8.406;2022-12-07T08:42:33;2.50;99.90
33815;DHT22;20121;51.910;8.406;2022-12-07T08:45:07;2.50;99.90
33815;DHT22;20121;51.910;8.406;2022-12-07T08:47:35;2.50;99.90
33815;DHT22;20121;51.910;8.406;2022-12-07T08:50:02;2.50;99.90
33815;DHT22;20121;51.910;8.406;2022-12-07T08:52:32;2.50;99.90
33815;DHT22;20121;51.910;8.406;2022-12-07T08:55:00;2.50;99.90
33815;DHT22;20121;51.910;8.406;2022-12-07T08:57:27;2.50;99.90
33815;DHT22;20121;51.910;8.406;2022-12-07T08:59:53;2.50;99.90
33815;DHT22;20121;51.910;8.406;2022-12-07T09:02:19;2.50;99.90
33815;DHT22;20121;51.910;8.406;2022-12-07T09:04:44;2.50;99.90
33815;DHT22;20121;51.910;8.406;2022-12-07T09:07:10;2.50;99.90
33815;DHT22;20121;51.910;8.406;2022-12-07T09:09:36;2.60;99.90
33815;DHT22;20121;51.910;8.406;2022-12-07T09:12:02;2.60;99.90
33815;DHT22;20121;51.910;8.406;2022-12-07T09:14:27;2.60;99.90
33815;DHT22;20121;51.910;8.406;2022-12-07T09:16:53;2.70;99.90
33815;DHT22;20121;51.910;8.406;2022-12-07T09:19:19;2.80;99.90
33815;DHT22;20121;51.910;8.406;2022-12-07T09:21:45;3.20;99.90
33815;DHT22;20121;51.910;8.406;2022-12-07T09:24:12;2.90;99.90
33815;DHT22;20121;51.910;8.406;2022-12-07T09:26:38;3.00;99.90
33815;DHT22;20121;51.910;8.406;2022-12-07T09:29:05;3.00;99.90
33815;DHT22;20121;51.910;8.406;2022-12-07T09:31:31;2.80;99.90
33815;DHT22;20121;51.910;8.406;2022-12-07T09:33:58;3.10;99.90
33815;DHT22;20121;51.910;8.406;2022-12-07T09:36:25;3.20;99.90
33815;DHT22;20121;51.910;8.406;2022-12-07T09:38:51;3.20;99.90
33815;DHT22;20121;51.910;8.406;2022-12-07T09:41:17;3.40;99.90
33815;DHT22;20121;51.910;8.406;2022-12-07T09:43:43;3.50;99.90
33815;DHT22;20121;51.910;8.406;2022-12-07T09:46:14;3.60;99.90
33815;DHT22;20121;51.910;8.406;2022-12-07T09:48:42;3.70;99.90
33815;DHT22;20121;51.910;8.406;2022-12-07T09:51:22;3.80;99.90
33815;DHT22;20121;51.910;8.406;2022-12-07T09:53:49;3.90;99.90
33815;DHT22;20121;51.910;8.406;2022-12-07T09:56:16;4.00;99.90
33815;DHT22;20121;51.910;8.406;2022-12-07T09:58:42;4.10;99.90
33815;DHT22;20121;51.910;8.406;2022-12-07T10:03:38;4.20;99.90
33815;DHT22;20121;51.910;8.406;2022-12-07T10:06:05;4.20;99.90
33815;DHT22;20121;51.910;8.406;2022-12-07T10:08:32;4.20;99.90
33815;DHT22;20121;51.910;8.406;2022-12-07T10:10:58;4.20;99.90
33815;DHT22;20121;51.910;8.406;2022-12-07T10:13:44;4.20;99.90
33815;DHT22;20121;51.910;8.406;2022-12-07T10:18:49;4.20;99.90
33815;DHT22;20121;51.910;8.406;2022-12-07T10:29:23;4.30;99.90
33815;DHT22;20121;51.910;8.406;2022-12-07T10:32:01;4.40;99.90
33815;DHT22;20121;51.910;8.406;2022-12-07T10:34:34;4.30;99.90
33815;DHT22;20121;51.910;8.406;2022-12-07T10:39:50;4.50;99.90
33815;DHT22;20121;51.910;8.406;2022-12-07T10:42:20;4.60;99.90
33815;DHT22;20121;51.910;8.406;2022-12-07T10:44:48;4.50;99.90
33815;DHT22;20121;51.910;8.406;2022-12-07T10:47:36;4.60;99.90
33815;DHT22;20121;51.910;8.406;2022-12-07T10:53:17;4.80;99.90
33815;DHT22;20121;51.910;8.406;2022-12-07T10:56:07;4.90;99.90
33815;DHT22;20121;51.910;8.406;2022-12-07T11:01:45;5.30;99.90
33815;DHT22;20121;51.910;8.406;2022-12-07T11:04:38;5.20;99.90
33815;DHT22;20121;51.910;8.406;2022-12-07T11:10:03;5.30;99.90
33815;DHT22;20121;51.910;8.406;2022-12-07T11:20:53;5.20;99.90
33815;DHT22;20121;51.910;8.406;2022-12-07T11:23:49;5.20;99.90
33815;DHT22;20121;51.910;8.406;2022-12-07T11:37:28;5.10;99.90
33815;DHT22;20121;51.910;8.406;2022-12-07T11:40:00;5.10;99.90
33815;DHT22;20121;51.910;8.406;2022-12-07T11:42:37;5.10;99.90
33815;DHT22;20121;51.910;8.406;2022-12-07T11:45:26;5.10;99.90
33815;DHT22;20121;51.910;8.406;2022-12-07T11:50:58;5.20;99.90
33815;DHT22;20121;51.910;8.406;2022-12-07T11:58:40;5.30;99.90
33815;DHT22;20121;51.910;8.406;2022-12-07T12:01:14;5.00;99.90
33815;DHT22;20121;51.910;8.406;2022-12-07T12:03:53;5.30;99.90
33815;DHT22;20121;51.910;8.406;2022-12-07T12:06:22;5.30;99.90
33815;DHT22;20121;51.910;8.406;2022-12-07T12:08:54;5.30;99.90
33815;DHT22;20121;51.910;8.406;2022-12-07T12:17:29;5.20;99.90
33815;DHT22;20121;51.910;8.406;2022-12-07T12:20:15;5.20;99.90
33815;DHT22;20121;51.910;8.406;2022-12-07T12:22:45;5.30;99.90
33815;DHT22;20121;51.910;8.406;2022-12-07T12:25:27;5.30;99.90
33815;DHT22;20121;51.910;8.406;2022-12-07T12:27:55;5.50;99.90
33815;DHT22;20121;51.910;8.406;2022-12-07T12:30:39;5.40;99.90
33815;DHT22;20121;51.910;8.406;2022-12-07T12:33:28;5.40;99.90
33815;DHT22;20121;51.910;8.406;2022-12-07T12:54:21;5.50;99.90
33815;DHT22;20121;51.910;8.406;2022-12-07T12:57:26;5.70;99.90
33815;DHT22;20121;51.910;8.406;2022-12-07T13:02:33;5.50;99.90
33815;DHT22;20121;51.910;8.406;2022-12-07T13:05:24;5.50;99.90
33815;DHT22;20121;51.910;8.406;2022-12-07T13:08:23;5.50;99.90
33815;DHT22;20121;51.910;8.406;2022-12-07T13:10:50;5.60;99.90
33815;DHT22;20121;51.910;8.406;2022-12-07T13:15:52;5.50;99.90
33815;DHT22;20121;51.910;8.406;2022-12-07T13:29:16;5.50;99.90
33815;DHT22;20121;51.910;8.406;2022-12-07T13:31:44;5.40;99.90
33815;DHT22;20121;51.910;8.406;2022-12-07T13:37:09;5.50;99.90
33815;DHT22;20121;51.910;8.406;2022-12-07T13:39:55;5.00;99.90
33815;DHT22;20121;51.910;8.406;2022-12-07T13:42:30;5.60;99.90
33815;DHT22;20121;51.910;8.406;2022-12-07T13:44:57;5.50;99.90
33815;DHT22;20121;51.910;8.406;2022-12-07T13:50:02;5.60;99.90
33815;DHT22;20121;51.910;8.406;2022-12-07T13:52:30;5.60;99.90
33815;DHT22;20121;51.910;8.406;2022-12-07T13:57:33;5.50;99.90
33815;DHT22;20121;51.910;8.406;2022-12-07T14:00:04;5.50;99.90
33815;DHT22;20121;51.910;8.406;2022-12-07T14:02:34;5.50;99.90
33815;DHT22;20121;51.910;8.406;2022-12-07T14:05:14;5.50;99.90
33815;DHT22;20121;51.910;8.406;2022-12-07T14:10:35;5.40;99.90
33815;DHT22;20121;51.910;8.406;2022-12-07T14:13:03;5.40;99.90
33815;DHT22;20121;51.910;8.406;2022-12-07T14:15:50;5.30;99.90
33815;DHT22;20121;51.910;8.406;2022-12-07T14:18:28;5.30;99.90
33815;DHT22;20121;51.910;8.406;2022-12-07T14:23:35;5.30;99.90
33815;DHT22;20121;51.910;8.406;2022-12-07T14:26:11;5.20;99.90
33815;DHT22;20121;51.910;8.406;2022-12-07T14:28:37;5.20;99.90
33815;DHT22;20121;51.910;8.406;2022-12-07T14:31:07;5.20;99.90
33815;DHT22;20121;51.910;8.406;2022-12-07T14:33:33;5.20;99.90
33815;DHT22;20121;51.910;8.406;2022-12-07T14:35:59;5.20;99.90
33815;DHT22;20121;51.910;8.406;2022-12-07T14:38:25;5.10;99.90
33815;DHT22;20121;51.910;8.406;2022-12-07T14:40:53;5.10;99.90
33815;DHT22;20121;51.910;8.406;2022-12-07T14:43:19;5.10;99.90
33815;DHT22;20121;51.910;8.406;2022-12-07T14:45:45;5.10;99.90
33815;DHT22;20121;51.910;8.406;2022-12-07T14:48:13;5.00;99.90
33815;DHT22;20121;51.910;8.406;2022-12-07T14:50:50;4.90;99.90
33815;DHT22;20121;51.910;8.406;2022-12-07T14:53:18;4.80;99.90
33815;DHT22;20121;51.910;8.406;2022-12-07T14:55:47;4.80;99.90
33815;DHT22;20121;51.910;8.406;2022-12-07T14:58:17;4.70;99.90
33815;DHT22;20121;51.910;8.406;2022-12-07T15:00:44;4.70;99.90
33815;DHT22;20121;51.910;8.406;2022-12-07T15:03:09;4.60;99.90
33815;DHT22;20121;51.910;8.406;2022-12-07T15:05:35;4.60;99.90
33815;DHT22;20121;51.910;8.406;2022-12-07T15:08:02;4.50;99.90
33815;DHT22;20121;51.910;8.406;2022-12-07T15:10:30;4.50;99.90
33815;DHT22;20121;51.910;8.406;2022-12-07T15:13:02;4.40;99.90
33815;DHT22;20121;51.910;8.406;2022-12-07T15:15:47;4.40;99.90
33815;DHT22;20121;51.910;8.406;2022-12-07T15:18:14;4.40;99.90
33815;DHT22;20121;51.910;8.406;2022-12-07T15:20:39;4.30;99.90
33815;DHT22;20121;51.910;8.406;2022-12-07T15:23:05;4.30;99.90
33815;DHT22;20121;51.910;8.406;2022-12-07T15:25:31;4.30;99.90
33815;DHT22;20121;51.910;8.406;2022-12-07T15:27:56;4.30;99.90
33815;DHT22;20121;51.910;8.406;2022-12-07T15:30:22;4.30;99.90
33815;DHT22;20121;51.910;8.406;2022-12-07T15:32:51;4.20;99.90
33815;DHT22;20121;51.910;8.406;2022-12-07T15:35:17;4.20;99.90
33815;DHT22;20121;51.910;8.406;2022-12-07T15:37:43;4.20;99.90
33815;DHT22;20121;51.910;8.406;2022-12-07T15:40:09;4.10;99.90
33815;DHT22;20121;51.910;8.406;2022-12-07T15:42:35;4.20;99.90
33815;DHT22;20121;51.910;8.406;2022-12-07T15:45:01;4.20;99.90
33815;DHT22;20121;51.910;8.406;2022-12-07T15:47:35;4.20;99.90
33815;DHT22;20121;51.910;8.406;2022-12-07T15:50:06;4.20;99.90
33815;DHT22;20121;51.910;8.406;2022-12-07T15:52:32;4.10;99.90
33815;DHT22;20121;51.910;8.406;2022-12-07T15:54:58;4.10;99.90
33815;DHT22;20121;51.910;8.406;2022-12-07T15:57:26;4.10;99.90
33815;DHT22;20121;51.910;8.406;2022-12-07T15:59:51;4.10;99.90
33815;DHT22;20121;51.910;8.406;2022-12-07T16:02:18;4.00;99.90
33815;DHT22;20121;51.910;8.406;2022-12-07T16:04:43;4.00;99.90
33815;DHT22;20121;51.910;8.406;2022-12-07T16:07:09;4.00;99.90
33815;DHT22;20121;51.910;8.406;2022-12-07T16:09:37;4.00;99.90
33815;DHT22;20121;51.910;8.406;2022-12-07T16:12:03;3.90;99.90
33815;DHT22;20121;51.910;8.406;2022-12-07T16:14:28;3.90;99.90
33815;DHT22;20121;51.910;8.406;2022-12-07T16:16:54;3.90;99.90
33815;DHT22;20121;51.910;8.406;2022-12-07T16:19:20;3.90;99.90
33815;DHT22;20121;51.910;8.406;2022-12-07T16:21:45;4.10;99.90
33815;DHT22;20121;51.910;8.406;2022-12-07T16:24:11;3.80;99.90
33815;DHT22;20121;51.910;8.406;2022-12-07T16:26:38;4.00;99.90
33815;DHT22;20121;51.910;8.406;2022-12-07T16:29:04;3.60;99.90
33815;DHT22;20121;51.910;8.406;2022-12-07T16:31:29;3.80;99.90
33815;DHT22;20121;51.910;8.406;2022-12-07T16:33:57;3.80;99.90
33815;DHT22;20121;51.910;8.406;2022-12-07T16:36:24;3.80;99.90
33815;DHT22;20121;51.910;8.406;2022-12-07T16:38:51;3.80;99.90
33815;DHT22;20121;51.910;8.406;2022-12-07T16:41:17;3.70;99.90
33815;DHT22;20121;51.910;8.406;2022-12-07T16:43:44;3.70;99.90
33815;DHT22;20121;51.910;8.406;2022-12-07T16:46:10;3.70;99.90
33815;DHT22;20121;51.910;8.406;2022-12-07T16:48:39;3.70;99.90
33815;DHT22;20121;51.910;8.406;2022-12-07T16:51:07;3.70;99.90
33815;DHT22;20121;51.910;8.406;2022-12-07T16:53:35;3.70;99.90
33815;DHT22;20121;51.910;8.406;2022-12-07T16:56:01;3.60;99.90
33815;DHT22;20121;51.910;8.406;2022-12-07T16:58:26;3.60;99.90
33815;DHT22;20121;51.910;8.406;2022-12-07T17:00:52;3.60;99.90
33815;DHT22;20121;51.910;8.406;2022-12-07T17:03:18;3.60;99.90
33815;DHT22;20121;51.910;8.406;2022-12-07T17:05:45;3.70;99.90
33815;DHT22;20121;51.910;8.406;2022-12-07T17:08:12;3.60;99.90
33815;DHT22;20121;51.910;8.406;2022-12-07T17:10:40;3.50;99.90
33815;DHT22;20121;51.910;8.406;2022-12-07T17:13:06;3.60;99.90
33815;DHT22;20121;51.910;8.406;2022-12-07T17:16:03;3.50;99.90
33815;DHT22;20121;51.910;8.406;2022-12-07T17:18:31;3.60;99.90
33815;DHT22;20121;51.910;8.406;2022-12-07T17:21:03;3.60;99.90
33815;DHT22;20121;51.910;8.406;2022-12-07T17:23:29;3.60;99.90
33815;DHT22;20121;51.910;8.406;2022-12-07T17:25:55;3.60;99.90
33815;DHT22;20121;51.910;8.406;2022-12-07T17:28:21;3.60;99.90
33815;DHT22;20121;51.910;8.406;2022-12-07T17:30:46;4.00;99.90
33815;DHT22;20121;51.910;8.406;2022-12-07T17:33:12;3.70;99.90
33815;DHT22;20121;51.910;8.406;2022-12-07T17:35:38;3.60;99.90
33815;DHT22;20121;51.910;8.406;2022-12-07T17:38:03;3.70;99.90
33815;DHT22;20121;51.910;8.406;2022-12-07T17:40:29;3.70;99.90
33815;DHT22;20121;51.910;8.406;2022-12-07T17:42:55;3.70;99.90
33815;DHT22;20121;51.910;8.406;2022-12-07T17:45:20;3.70;99.90
33815;DHT22;20121;51.910;8.406;2022-12-07T17:47:46;3.70;99.90
33815;DHT22;20121;51.910;8.406;2022-12-07T17:50:11;3.70;99.90
33815;DHT22;20121;51.910;8.406;2022-12-07T17:52:38;3.70;99.90
33815;DHT22;20121;51.910;8.406;2022-12-07T17:55:22;3.70;99.90
33815;DHT22;20121;51.910;8.406;2022-12-07T17:57:48;3.70;99.90
33815;DHT22;20121;51.910;8.406;2022-12-07T18:00:14;3.70;99.90
33815;DHT22;20121;51.910;8.406;2022-12-07T18:02:40;3.70;99.90
33815;DHT22;20121;51.910;8.406;2022-12-07T18:05:06;3.70;99.90
33815;DHT22;20121;51.910;8.406;2022-12-07T18:07:32;3.70;99.90
33815;DHT22;20121;51.910;8.406;2022-12-07T18:09:57;3.40;99.90
33815;DHT22;20121;51.910;8.406;2022-12-07T18:12:23;3.70;99.90